createdAt,value
2019-03-17T00:00:10.353Z,64.80
2019-03-17T00:02:38.896Z,59.63
2019-03-17T00:05:07.529Z,54.40
2019-03-17T00:07:36.006Z,43.85
2019-03-17T00:10:04.944Z,67.10
2019-03-17T00:12:33.457Z,57.35
2019-03-17T00:15:05.732Z,63.15
2019-03-17T00:17:32.658Z,83.47
2019-03-17T00:20:01.137Z,62.70
2019-03-17T00:22:29.642Z,47.08
2019-03-17T00:25:08.428Z,48.15
2019-03-17T00:27:28.383Z,62.98
2019-03-17T00:29:56.860Z,51.50
2019-03-17T00:32:25.351Z,58.60
2019-03-17T00:34:53.824Z,57.43
2019-03-17T00:37:22.329Z,52.03
2019-03-17T00:39:50.783Z,53.83
2019-03-17T00:42:19.281Z,60.03
2019-03-17T00:44:47.752Z,62.08
2019-03-17T00:47:16.238Z,53.50
2019-03-17T00:49:44.717Z,49.25
2019-03-17T00:52:13.216Z,55.10
2019-03-17T00:54:41.691Z,46.83
2019-03-17T00:57:10.446Z,44.55
2019-03-17T00:59:38.928Z,35.95
2019-03-17T01:02:07.427Z,44.10
2019-03-17T01:04:35.902Z,46.92
2019-03-17T01:07:04.471Z,48.45
2019-03-17T01:09:32.970Z,42.08
2019-03-17T01:12:01.608Z,53.08
2019-03-17T01:14:30.169Z,47.17
2019-03-17T01:16:58.670Z,61.18
2019-03-17T01:19:27.237Z,59.33
2019-03-17T01:21:55.743Z,53.17
2019-03-17T01:24:24.329Z,52.83
2019-03-17T01:26:52.783Z,55.83
2019-03-17T01:29:21.285Z,50.08
2019-03-17T01:31:49.754Z,53.80
2019-03-17T01:34:18.256Z,65.25
2019-03-17T01:36:46.742Z,53.17
2019-03-17T01:39:15.234Z,50.10
2019-03-17T01:41:43.704Z,58.20
2019-03-17T01:44:12.265Z,45.92
2019-03-17T01:46:40.728Z,50.73
2019-03-17T01:49:09.228Z,53.48
2019-03-17T01:51:37.765Z,48.40
2019-03-17T01:54:06.315Z,46.77
2019-03-17T01:56:34.847Z,43.17
2019-03-17T01:59:03.400Z,38.42
2019-03-17T02:01:31.856Z,43.52
2019-03-17T02:04:00.331Z,46.55
2019-03-17T02:06:28.812Z,50.67
2019-03-17T02:08:57.290Z,58.17
2019-03-17T02:11:25.760Z,47.23
2019-03-17T02:13:54.240Z,41.65
2019-03-17T02:16:22.715Z,47.20
2019-03-17T02:18:51.219Z,49.42
2019-03-17T02:23:46.166Z,40.60
2019-03-17T02:26:14.642Z,49.00
2019-03-17T02:28:43.279Z,45.10
2019-03-17T02:31:11.784Z,47.75
2019-03-17T02:33:40.281Z,46.08
2019-03-17T02:36:08.756Z,45.25
2019-03-17T02:38:37.235Z,44.75
2019-03-17T02:41:05.788Z,42.95
2019-03-17T02:43:34.269Z,39.83
2019-03-17T02:46:03.209Z,37.42
2019-03-17T02:48:31.711Z,34.58
2019-03-17T02:51:00.188Z,31.27
2019-03-17T02:53:28.661Z,33.33
2019-03-17T02:55:57.172Z,35.38
2019-03-17T02:58:25.650Z,40.90
2019-03-17T03:00:54.154Z,34.98
2019-03-17T03:03:22.620Z,38.13
2019-03-17T03:05:55.163Z,39.50
2019-03-17T03:08:21.276Z,41.73
2019-03-17T03:10:49.755Z,53.02
2019-03-17T03:13:18.242Z,90.07
2019-03-17T03:15:46.711Z,47.10
2019-03-17T03:18:15.213Z,101.15
2019-03-17T03:20:43.684Z,97.53
2019-03-17T03:23:12.162Z,69.90
2019-03-17T03:25:40.648Z,62.27
2019-03-17T03:28:09.156Z,106.50
2019-03-17T03:30:37.658Z,117.57
2019-03-17T03:33:06.126Z,98.85
2019-03-17T03:35:34.600Z,76.40
2019-03-17T03:38:03.072Z,118.28
2019-03-17T03:40:31.616Z,73.72
2019-03-17T03:43:00.103Z,64.05
2019-03-17T03:45:28.600Z,85.40
2019-03-17T03:47:57.078Z,77.42
2019-03-17T03:50:25.557Z,76.80
2019-03-17T03:52:54.039Z,59.88
2019-03-17T03:55:22.498Z,68.02
2019-03-17T03:57:51.028Z,70.95
2019-03-17T04:00:19.561Z,53.55
2019-03-17T04:02:48.061Z,67.85
2019-03-17T04:05:16.594Z,59.33
2019-03-17T04:07:45.089Z,62.35
2019-03-17T04:10:13.726Z,57.08
2019-03-17T04:12:42.221Z,49.20
2019-03-17T04:15:11.537Z,43.70
2019-03-17T04:17:40.106Z,42.75
2019-03-17T04:20:11.126Z,45.23
2019-03-17T04:22:39.572Z,46.03
2019-03-17T04:25:08.349Z,45.90
2019-03-17T04:27:36.932Z,43.33
2019-03-17T04:30:08.396Z,44.75
2019-03-17T04:32:36.840Z,38.53
2019-03-17T04:35:06.780Z,42.17
2019-03-17T04:37:35.321Z,48.02
2019-03-17T04:40:04.687Z,41.68
2019-03-17T04:42:33.160Z,40.10
2019-03-17T04:45:01.669Z,39.33
2019-03-17T04:47:30.213Z,42.95
2019-03-17T04:49:58.672Z,46.70
2019-03-17T04:52:27.501Z,44.40
2019-03-17T04:54:55.977Z,44.58
2019-03-17T04:57:24.458Z,43.02
2019-03-17T04:59:52.975Z,48.15
2019-03-17T05:02:21.453Z,40.52
2019-03-17T05:04:49.933Z,45.80
2019-03-17T05:07:18.422Z,40.65
2019-03-17T05:09:46.920Z,38.13
2019-03-17T05:12:15.429Z,38.48
2019-03-17T05:14:43.933Z,38.70
2019-03-17T05:17:12.396Z,33.38
2019-03-17T05:19:40.875Z,38.92
2019-03-17T05:22:09.353Z,39.78
2019-03-17T05:24:37.851Z,44.50
2019-03-17T05:27:06.329Z,38.40
2019-03-17T05:29:34.802Z,35.63
2019-03-17T05:32:03.294Z,37.05
2019-03-17T05:34:31.809Z,41.28
2019-03-17T05:37:05.990Z,37.30
2019-03-17T05:39:30.470Z,38.25
2019-03-17T05:41:58.955Z,36.80
2019-03-17T05:44:27.438Z,48.08
2019-03-17T05:46:55.920Z,38.85
2019-03-17T05:49:24.387Z,42.53
2019-03-17T05:51:52.895Z,46.37
2019-03-17T05:54:22.885Z,70.70
2019-03-17T05:56:51.356Z,120.57
2019-03-17T05:59:19.890Z,121.97
2019-03-17T06:01:48.390Z,121.22
2019-03-17T06:04:16.865Z,138.30
2019-03-17T06:06:45.332Z,158.63
2019-03-17T06:09:13.833Z,109.20
2019-03-17T06:11:42.317Z,102.47
2019-03-17T06:14:10.835Z,100.15
2019-03-17T06:16:39.315Z,77.45
2019-03-17T06:19:10.077Z,78.83
2019-03-17T06:21:38.541Z,59.90
2019-03-17T06:24:07.429Z,71.55
2019-03-17T06:26:35.960Z,56.70
2019-03-17T06:29:04.429Z,53.75
2019-03-17T06:31:32.928Z,41.75
2019-03-17T06:34:01.427Z,40.43
2019-03-17T06:36:29.895Z,48.48
2019-03-17T06:38:58.386Z,40.38
2019-03-17T06:41:26.856Z,31.12
2019-03-17T06:43:55.389Z,35.13
2019-03-17T06:46:23.858Z,36.55
2019-03-17T06:48:52.344Z,51.25
2019-03-17T06:51:20.824Z,48.10
2019-03-17T06:53:56.414Z,49.60
2019-03-17T06:56:19.517Z,39.35
2019-03-17T06:58:48.017Z,61.88
2019-03-17T07:01:16.501Z,128.05
2019-03-17T07:03:44.982Z,72.65
2019-03-17T07:06:13.463Z,37.93
2019-03-17T07:08:41.930Z,88.62
2019-03-17T07:11:11.308Z,72.65
2019-03-17T07:13:39.752Z,26.62
2019-03-17T07:16:08.257Z,112.80
2019-03-17T07:18:36.722Z,30.17
2019-03-17T07:21:05.298Z,83.22
2019-03-17T07:23:34.436Z,41.53
2019-03-17T07:26:04.628Z,25.05
2019-03-17T07:28:33.110Z,64.37
2019-03-17T07:31:01.583Z,73.45
2019-03-17T07:33:30.063Z,28.07
2019-03-17T07:35:58.579Z,36.15
2019-03-17T07:38:27.190Z,52.78
2019-03-17T07:40:55.633Z,40.80
2019-03-17T07:43:24.113Z,158.10
2019-03-17T07:45:52.618Z,108.97
2019-03-17T07:48:21.093Z,32.23
2019-03-17T07:50:49.602Z,29.00
2019-03-17T07:53:18.086Z,20.43
2019-03-17T07:55:46.589Z,25.15
2019-03-17T07:58:15.132Z,196.47
2019-03-17T08:00:43.638Z,40.90
2019-03-17T08:03:12.120Z,30.10
2019-03-17T08:05:40.617Z,33.18
2019-03-17T08:08:09.992Z,47.67
2019-03-17T08:10:38.694Z,22.85
2019-03-17T08:13:07.354Z,17.50
2019-03-17T08:15:35.896Z,29.45
2019-03-17T08:18:04.374Z,20.12
2019-03-17T08:20:32.875Z,18.37
2019-03-17T08:23:01.379Z,18.07
2019-03-17T08:25:29.916Z,15.53
2019-03-17T08:27:58.393Z,16.85
2019-03-17T08:30:26.868Z,16.82
2019-03-17T08:32:55.346Z,14.23
2019-03-17T08:35:23.830Z,53.38
2019-03-17T08:37:52.315Z,88.22
2019-03-17T08:40:20.818Z,60.55
2019-03-17T08:42:49.371Z,87.75
2019-03-17T08:45:17.894Z,50.55
2019-03-17T08:47:57.340Z,45.58
2019-03-17T08:50:16.588Z,24.32
2019-03-17T08:52:45.071Z,14.58
2019-03-17T08:55:13.651Z,16.37
2019-03-17T08:57:42.189Z,12.35
2019-03-17T09:00:18.908Z,13.58
2019-03-17T09:02:47.404Z,20.30
2019-03-17T09:05:16.607Z,30.00
2019-03-17T09:07:45.152Z,10.68
2019-03-17T09:10:14.882Z,19.45
2019-03-17T09:12:43.411Z,37.80
2019-03-17T09:15:12.152Z,15.32
2019-03-17T09:17:40.735Z,24.47
2019-03-17T09:20:13.915Z,15.75
2019-03-17T09:22:42.360Z,23.65
2019-03-17T09:25:12.016Z,19.98
2019-03-17T09:27:40.565Z,18.55
2019-03-17T09:30:20.062Z,32.23
2019-03-17T09:32:48.576Z,28.20
2019-03-17T09:35:17.116Z,11.70
2019-03-17T09:37:45.616Z,11.48
2019-03-17T09:40:15.530Z,21.85
2019-03-17T09:42:44.087Z,33.40
2019-03-17T09:45:13.631Z,16.97
2019-03-17T09:47:42.478Z,33.48
2019-03-17T09:50:16.210Z,14.95
2019-03-17T09:52:44.784Z,10.50
2019-03-17T09:55:13.497Z,25.35
2019-03-17T09:57:41.975Z,17.48
2019-03-17T10:29:52.206Z,25.43
2019-03-17T10:32:33.077Z,22.45
2019-03-17T10:35:01.581Z,13.18
2019-03-17T10:37:30.060Z,11.70
2019-03-17T10:39:58.547Z,18.32
2019-03-17T10:42:27.023Z,12.18
2019-03-17T10:44:57.030Z,11.97
2019-03-17T10:47:25.517Z,25.37
2019-03-17T10:49:54.021Z,17.67
2019-03-17T10:52:22.489Z,11.93
2019-03-17T10:54:52.529Z,12.43
2019-03-17T10:57:21.004Z,13.80
2019-03-17T10:59:49.514Z,15.72
2019-03-17T11:02:18.122Z,9.95
2019-03-17T11:04:46.719Z,12.47
2019-03-17T11:07:15.287Z,21.37
2019-03-17T11:09:43.778Z,20.45
2019-03-17T11:12:12.325Z,41.08
2019-03-17T11:14:40.810Z,37.98
2019-03-17T11:17:09.316Z,38.17
2019-03-17T11:19:37.795Z,21.95
2019-03-17T11:22:06.304Z,37.60
2019-03-17T11:24:34.882Z,34.03
2019-03-17T11:27:03.358Z,49.90
2019-03-17T11:29:31.873Z,45.17
2019-03-17T11:32:00.386Z,69.82
2019-03-17T11:34:28.857Z,51.77
2019-03-17T11:36:57.365Z,51.65
2019-03-17T11:39:37.295Z,47.05
2019-03-17T11:41:56.070Z,45.10
2019-03-17T11:44:24.549Z,21.30
2019-03-17T11:46:53.134Z,22.40
2019-03-17T11:49:21.688Z,22.58
2019-03-17T11:51:50.227Z,28.47
2019-03-17T11:54:18.710Z,53.20
2019-03-17T11:56:47.188Z,38.60
2019-03-17T11:59:15.695Z,62.90
2019-03-17T12:01:44.165Z,30.02
2019-03-17T12:04:12.676Z,74.30
2019-03-17T12:06:41.219Z,31.68
2019-03-17T12:09:09.735Z,35.38
2019-03-17T12:11:38.223Z,57.70
2019-03-17T12:14:09.701Z,42.95
2019-03-17T12:16:37.075Z,35.05
2019-03-17T12:19:05.694Z,21.05
2019-03-17T12:21:34.208Z,53.98
2019-03-17T12:24:02.957Z,27.93
2019-03-17T12:26:31.502Z,30.72
2019-03-17T12:28:59.999Z,80.05
2019-03-17T12:31:30.038Z,36.20
2019-03-17T12:33:58.521Z,30.50
2019-03-17T12:36:26.995Z,42.40
2019-03-17T12:38:55.556Z,48.65
2019-03-17T12:41:24.032Z,35.20
2019-03-17T12:43:52.586Z,11.38
2019-03-17T12:46:21.056Z,16.67
2019-03-17T12:48:49.535Z,9.43
2019-03-17T12:51:18.101Z,14.15
2019-03-17T12:53:46.603Z,12.18
2019-03-17T12:56:15.166Z,25.17
2019-03-17T12:58:43.662Z,15.23
2019-03-17T13:01:12.142Z,30.88
2019-03-17T13:03:40.670Z,20.70
2019-03-17T13:06:11.861Z,32.50
2019-03-17T13:08:40.328Z,9.73
2019-03-17T13:11:10.494Z,19.00
2019-03-17T13:13:38.979Z,8.63
2019-03-17T13:16:07.568Z,7.85
2019-03-17T13:18:36.037Z,9.18
2019-03-17T13:21:04.522Z,16.75
2019-03-17T13:23:33.026Z,32.23
2019-03-17T13:26:01.502Z,18.92
2019-03-17T13:28:30.153Z,23.18
2019-03-17T13:30:58.701Z,13.13
2019-03-17T13:33:27.212Z,26.45
2019-03-17T13:35:55.731Z,54.30
2019-03-17T13:38:24.274Z,16.15
2019-03-17T13:40:52.775Z,28.45
2019-03-17T13:43:21.314Z,19.82
2019-03-17T13:45:51.283Z,13.50
2019-03-17T13:48:19.768Z,10.72
2019-03-17T13:50:50.428Z,7.67
2019-03-17T13:53:18.897Z,17.70
2019-03-17T13:55:47.366Z,12.50
2019-03-17T13:58:15.878Z,21.62
2019-03-17T14:00:44.533Z,23.25
2019-03-17T14:03:13.666Z,31.82
2019-03-17T14:05:42.172Z,11.90
2019-03-17T14:08:10.875Z,33.10
2019-03-17T14:10:41.421Z,11.48
2019-03-17T14:13:11.128Z,35.98
2019-03-17T14:15:41.155Z,21.75
2019-03-17T14:18:09.667Z,34.70
2019-03-17T14:20:38.196Z,105.05
2019-03-17T14:23:06.696Z,85.85
2019-03-17T14:25:36.937Z,96.63
2019-03-17T14:28:05.694Z,74.77
2019-03-17T14:30:34.301Z,68.52
2019-03-17T14:33:04.387Z,79.67
2019-03-17T14:35:32.872Z,56.65
2019-03-17T14:38:01.445Z,51.18
2019-03-17T14:40:31.319Z,60.50
2019-03-17T14:42:59.938Z,56.10
2019-03-17T14:45:28.449Z,37.95
2019-03-17T14:47:57.091Z,32.60
2019-03-17T14:50:26.116Z,72.08
2019-03-17T14:52:55.363Z,80.57
2019-03-17T14:55:24.079Z,66.50
2019-03-17T14:57:52.594Z,101.87
2019-03-17T15:00:22.010Z,115.88
2019-03-17T15:02:50.654Z,77.92
2019-03-17T15:05:19.193Z,78.42
2019-03-17T15:07:47.703Z,87.15
2019-03-17T15:10:22.573Z,92.47
2019-03-17T15:12:52.696Z,76.10
2019-03-17T15:15:22.221Z,58.85
2019-03-17T15:17:50.788Z,81.05
2019-03-17T15:20:20.614Z,40.75
2019-03-17T15:22:49.180Z,82.57
2019-03-17T15:25:17.962Z,87.35
2019-03-17T15:27:46.437Z,34.92
2019-03-17T15:30:23.251Z,110.63
2019-03-17T15:32:51.792Z,83.72
2019-03-17T15:35:20.307Z,84.32
2019-03-17T15:37:48.954Z,105.95
2019-03-17T15:40:22.073Z,48.83
2019-03-17T15:42:50.723Z,79.77
2019-03-17T15:45:20.676Z,85.62
2019-03-17T15:47:49.216Z,67.53
2019-03-17T15:50:22.028Z,76.65
2019-03-17T15:52:50.658Z,117.77
2019-03-17T15:55:19.295Z,81.37
2019-03-17T15:57:47.868Z,38.38
2019-03-17T16:00:26.274Z,57.13
2019-03-17T16:02:53.563Z,42.38
2019-03-17T16:05:22.381Z,161.03
2019-03-17T16:07:51.016Z,186.05
2019-03-17T16:10:27.213Z,361.68
2019-03-17T16:12:55.777Z,128.75
2019-03-17T16:15:24.254Z,173.62
2019-03-17T16:17:52.750Z,92.02
2019-03-17T16:20:28.110Z,121.10
2019-03-17T16:22:56.888Z,149.97
2019-03-17T16:25:27.749Z,87.62
2019-03-17T16:27:56.326Z,53.60
2019-03-17T16:30:30.342Z,53.58
2019-03-17T16:32:58.948Z,18.17
2019-03-17T16:35:27.513Z,15.35
2019-03-17T16:37:56.239Z,18.35
2019-03-17T16:40:31.583Z,24.10
2019-03-17T16:43:00.167Z,23.87
2019-03-17T16:45:28.997Z,36.20
2019-03-17T16:47:57.584Z,117.15
2019-03-17T16:50:26.297Z,138.57
2019-03-17T16:52:54.778Z,173.40
2019-03-17T16:55:23.323Z,141.05
2019-03-17T16:57:51.888Z,180.20
2019-03-17T17:00:25.529Z,113.00
2019-03-17T17:02:54.192Z,94.85
2019-03-17T17:05:23.822Z,127.25
2019-03-17T17:07:52.385Z,101.62
2019-03-17T17:10:30.797Z,206.02
2019-03-17T17:12:59.480Z,133.12
2019-03-17T17:15:32.312Z,207.90
2019-03-17T17:18:00.799Z,296.48
2019-03-17T17:20:30.655Z,199.90
2019-03-17T17:22:59.205Z,227.65
2019-03-17T17:25:27.720Z,172.20
2019-03-17T17:27:56.501Z,145.38
2019-03-17T17:30:25.006Z,102.17
2019-03-17T17:32:53.548Z,123.62
2019-03-17T17:35:22.051Z,220.93
2019-03-17T17:37:50.730Z,92.20
2019-03-17T17:40:23.098Z,89.97
2019-03-17T17:42:51.662Z,106.20
2019-03-17T17:45:25.140Z,147.22
2019-03-17T17:47:53.634Z,100.38
2019-03-17T17:50:23.452Z,123.70
2019-03-17T17:52:51.967Z,106.92
2019-03-17T17:55:21.535Z,112.00
2019-03-17T17:57:52.613Z,99.55
2019-03-17T18:00:22.898Z,131.12
2019-03-17T18:02:52.931Z,208.33
2019-03-17T18:05:21.483Z,222.55
2019-03-17T18:07:49.986Z,294.40
2019-03-17T18:10:19.307Z,192.15
2019-03-17T18:12:47.880Z,193.10
2019-03-17T18:15:27.148Z,138.55
2019-03-17T18:17:55.641Z,124.90
2019-03-17T18:20:24.194Z,101.53
2019-03-17T18:22:52.847Z,293.30
2019-03-17T18:25:24.286Z,331.50
2019-03-17T18:27:52.768Z,323.52
2019-03-17T18:30:23.751Z,379.25
2019-03-17T18:32:52.419Z,239.93
2019-03-17T18:35:21.067Z,259.77
2019-03-17T18:37:51.067Z,209.18
2019-03-17T18:40:20.811Z,209.00
2019-03-17T18:42:49.404Z,217.10
2019-03-17T18:45:25.449Z,242.77
2019-03-17T18:47:53.996Z,129.57
2019-03-17T18:50:22.473Z,185.25
2019-03-17T18:52:51.856Z,170.28
2019-03-17T18:55:20.333Z,115.37
2019-03-17T18:57:49.040Z,134.67
2019-03-17T19:00:19.781Z,88.62
2019-03-17T19:02:48.550Z,100.55
2019-03-17T19:05:19.987Z,84.60
2019-03-17T19:07:48.125Z,109.37
2019-03-17T19:10:21.201Z,92.67
2019-03-17T19:12:50.917Z,103.20
2019-03-17T19:15:21.336Z,117.87
2019-03-17T19:17:50.083Z,166.82
2019-03-17T19:20:19.528Z,146.95
2019-03-17T19:22:48.424Z,103.87
2019-03-17T19:25:21.968Z,121.20
2019-03-17T19:27:52.025Z,95.83
2019-03-17T19:30:23.903Z,95.77
2019-03-17T19:32:52.454Z,114.97
2019-03-17T19:35:21.258Z,133.37
2019-03-17T19:37:49.920Z,125.22
2019-03-17T19:40:25.398Z,133.82
2019-03-17T19:42:59.374Z,94.45
2019-03-17T19:45:24.389Z,98.72
2019-03-17T19:47:53.090Z,127.82
2019-03-17T19:50:22.486Z,154.15
2019-03-17T19:52:55.150Z,212.72
2019-03-17T19:55:23.632Z,173.70
2019-03-17T19:57:52.120Z,164.13
2019-03-17T20:00:21.649Z,165.20
2019-03-17T20:02:50.157Z,157.90
2019-03-17T20:05:18.633Z,136.15
2019-03-17T20:07:47.145Z,124.55
2019-03-17T20:10:18.703Z,140.07
2019-03-17T20:12:47.183Z,175.05
2019-03-17T20:15:15.679Z,184.15
2019-03-17T20:17:44.177Z,192.75
2019-03-17T20:20:14.208Z,245.70
2019-03-17T20:22:42.822Z,206.20
2019-03-17T20:25:11.430Z,237.95
2019-03-17T20:27:39.903Z,307.25
2019-03-17T20:30:14.641Z,319.05
2019-03-17T20:32:43.273Z,435.78
2019-03-17T20:35:13.006Z,607.35
2019-03-17T20:37:41.524Z,260.45
2019-03-17T20:40:13.442Z,238.70
2019-03-17T20:45:14.012Z,279.57
2019-03-17T20:47:42.705Z,254.95
2019-03-17T20:50:15.261Z,275.20
2019-03-17T20:52:43.763Z,341.48
2019-03-17T20:55:12.922Z,386.12
2019-03-17T20:57:41.637Z,424.95
2019-03-17T21:00:20.304Z,408.00
2019-03-17T21:02:48.917Z,410.85
2019-03-17T21:05:17.627Z,536.35
2019-03-17T21:07:46.211Z,297.05
2019-03-17T21:10:16.572Z,274.70
2019-03-17T21:12:45.186Z,274.70
2019-03-17T21:15:16.013Z,331.85
2019-03-17T21:17:44.495Z,497.37
2019-03-17T21:20:24.151Z,464.80
2019-03-17T21:22:52.621Z,359.30
2019-03-17T21:25:21.169Z,214.97
2019-03-17T21:27:49.674Z,52.78
2019-03-17T21:30:27.095Z,47.38
2019-03-17T21:32:55.546Z,33.38
2019-03-17T21:35:24.045Z,59.38
2019-03-17T21:37:52.542Z,20.70
2019-03-17T21:40:21.082Z,37.50
2019-03-17T21:42:50.481Z,32.65
2019-03-17T21:45:19.027Z,54.05
2019-03-17T21:47:47.487Z,27.65
2019-03-17T21:50:17.329Z,24.98
2019-03-17T21:52:45.870Z,14.05
2019-03-17T21:55:14.713Z,35.08
2019-03-17T21:57:43.203Z,30.70
2019-03-17T22:00:19.318Z,19.62
2019-03-17T22:02:49.576Z,17.92
2019-03-17T22:05:18.198Z,16.35
2019-03-17T22:07:51.047Z,17.02
2019-03-17T22:10:18.399Z,21.45
2019-03-17T22:12:47.003Z,29.15
2019-03-17T22:15:16.439Z,19.10
2019-03-17T22:17:45.024Z,20.92
2019-03-17T22:20:17.066Z,16.40
2019-03-17T22:22:45.617Z,18.92
2019-03-17T22:25:17.433Z,26.30
2019-03-17T22:27:45.906Z,16.52
2019-03-17T22:30:20.138Z,21.37
2019-03-17T22:32:48.764Z,17.15
2019-03-17T22:35:17.301Z,29.92
2019-03-17T22:37:45.774Z,15.70
2019-03-17T22:40:18.233Z,15.48
2019-03-17T22:42:47.066Z,12.10
2019-03-17T22:45:17.269Z,22.05
2019-03-17T22:47:45.718Z,33.50
2019-03-17T22:50:18.916Z,56.90
2019-03-17T22:52:47.665Z,97.80
2019-03-17T22:55:16.680Z,93.55
2019-03-17T22:57:45.176Z,34.08
2019-03-17T23:00:26.220Z,25.80
2019-03-17T23:02:54.685Z,88.07
2019-03-17T23:05:23.176Z,79.00
2019-03-17T23:07:51.645Z,71.22
2019-03-17T23:10:20.141Z,82.05
2019-03-17T23:12:48.616Z,38.83
2019-03-17T23:15:17.170Z,11.80
2019-03-17T23:17:45.638Z,26.55
2019-03-17T23:20:15.885Z,32.55
2019-03-17T23:22:44.827Z,25.17
2019-03-17T23:25:13.856Z,25.82
2019-03-17T23:27:42.335Z,13.75
2019-03-17T23:30:14.839Z,9.10
2019-03-17T23:32:43.329Z,26.82
2019-03-17T23:35:11.934Z,48.75
2019-03-17T23:37:40.417Z,27.05
2019-03-17T23:40:13.545Z,50.20
2019-03-17T23:42:42.024Z,22.40
2019-03-17T23:45:12.037Z,40.15
2019-03-17T23:47:40.533Z,90.05
2019-03-17T23:50:11.320Z,16.25
2019-03-17T23:52:39.791Z,122.05
2019-03-17T23:55:13.451Z,144.43
2019-03-17T23:57:41.971Z,11.85
